首页
METAR-TAF:

METAR-TAF

机场 :

富蘭克林, 弗吉尼亚州, 美国

Franklin Municipal-John Beverly Rose Airport

纬度: 36-42N, 经度: 076-54W, 海拔: 12米

当前天气观测

该预报发布于18分钟前的14:15 UTC
静风
温度 16°C
湿度 45%
气压 1030 hPa
能見度: 16.1公里
天空无云

METAR: KFKN 221415Z AUTO 00000KT 10SM CLR 16/04 A3042 RMK AO2 T01590040

时间: 10:33 (14:33 UTC)


TAF: 丢失

超过4000个机场的气象观测和天气预报(METAR&TAF报告)。

可查询的气象台以黄色和红色小点在地图上表示。

将鼠标移到小点上方,可查看气象台名称。

然后点击查看天气观测和预报。

如需切换地图:点击带黑十字的绿色按钮放大地图;点击带横线的绿色按钮缩小地图;或者点击绿色箭头查看邻近地区的地图。


METAR-TAF: